Time;durP1;ratioP1;P1;durP2;ratioP2;P2;SDS_P1;SDS_P2;PMS_P1;PMS_P2;Temp;Humidity;BMP_temperature;BMP_pressure;BME280_temperature;BME280_humidity;BME280_pressure;Samples;Min_cycle;Max_cycle;Signal;HPM_P1;HPM_P2
2021/07/12 00:00:42;;;;;;;7.97;5.73;;;17.70;99.90;;;;;;5092653;28;20198;-80
2021/07/12 00:03:09;;;;;;;5.83;5.20;;;17.70;99.90;;;;;;5090086;28;20286;-80
2021/07/12 00:05:36;;;;;;;10.77;5.43;;;17.70;99.90;;;;;;5092704;28;20336;-80
2021/07/12 00:08:04;;;;;;;8.90;5.20;;;17.60;99.90;;;;;;5091936;28;20199;-80
2021/07/12 00:10:31;;;;;;;10.30;5.00;;;17.70;99.90;;;;;;5092630;28;20746;-81
2021/07/12 00:12:59;;;;;;;7.90;5.07;;;17.60;99.90;;;;;;5092005;28;20191;-80
2021/07/12 00:15:29;;;;;;;7.23;5.17;;;17.60;99.90;;;;;;5092029;28;20535;-81
2021/07/12 00:17:56;;;;;;;8.20;4.83;;;17.60;99.90;;;;;;5092923;28;20199;-81
2021/07/12 00:20:24;;;;;;;6.03;5.37;;;17.40;99.90;;;;;;5091520;28;20201;-81
2021/07/12 00:22:52;;;;;;;8.03;4.80;;;17.40;99.90;;;;;;5092264;28;20223;-80
2021/07/12 00:25:21;;;;;;;8.10;4.60;;;17.40;99.90;;;;;;5092746;28;20278;-80
2021/07/12 00:27:49;;;;;;;5.77;4.87;;;17.60;99.90;;;;;;5092650;28;20631;-80
2021/07/12 00:30:19;;;;;;;5.03;4.17;;;17.60;99.90;;;;;;5092962;28;20244;-80
2021/07/12 00:32:47;;;;;;;8.47;5.13;;;17.50;99.90;;;;;;5092984;28;20294;-80
2021/07/12 00:35:15;;;;;;;7.13;4.80;;;17.60;99.90;;;;;;5093190;28;20225;-81
2021/07/12 00:37:42;;;;;;;6.70;4.97;;;17.60;99.90;;;;;;5093087;28;20289;-81
2021/07/12 00:40:12;;;;;;;7.73;5.23;;;17.70;99.90;;;;;;5093102;28;20213;-81
2021/07/12 00:42:40;;;;;;;7.50;5.20;;;17.70;99.90;;;;;;5093161;28;20285;-80
2021/07/12 00:45:10;;;;;;;8.30;5.23;;;17.70;99.90;;;;;;5092894;28;20289;-81
2021/07/12 00:47:38;;;;;;;6.80;5.40;;;17.70;99.90;;;;;;5092997;28;20199;-80
2021/07/12 00:50:08;;;;;;;13.20;7.60;;;17.60;99.90;;;;;;5092823;28;20198;-81
2021/07/12 00:52:35;;;;;;;10.53;7.90;;;17.60;99.90;;;;;;5092749;28;20195;-81
2021/07/12 00:55:05;;;;;;;12.17;7.83;;;17.70;99.90;;;;;;5093235;28;20190;-80
2021/07/12 00:57:32;;;;;;;9.83;6.77;;;17.70;99.90;;;;;;5092836;28;20201;-80
2021/07/12 00:59:59;;;;;;;8.13;6.60;;;17.80;99.90;;;;;;5093168;28;20285;-80
2021/07/12 01:02:26;;;;;;;10.93;5.53;;;17.70;99.90;;;;;;5092742;28;20290;-80
2021/07/12 01:04:54;;;;;;;7.20;5.77;;;17.80;99.90;;;;;;5092577;28;20290;-80
2021/07/12 01:07:21;;;;;;;8.77;5.70;;;17.70;99.90;;;;;;5092529;28;20293;-81
2021/07/12 01:09:48;;;;;;;9.37;5.87;;;17.70;99.90;;;;;;5092728;28;20222;-80
2021/07/12 01:12:23;;;;;;;6.60;5.90;;;17.70;99.90;;;;;;5092918;28;20223;-80
2021/07/12 01:14:57;;;;;;;6.50;5.37;;;17.60;99.90;;;;;;5092900;28;20191;-80
2021/07/12 01:17:32;;;;;;;7.43;5.57;;;17.60;99.90;;;;;;5092824;28;20348;-80
2021/07/12 01:20:44;;;;;;;6.90;5.40;;;17.50;99.90;;;;;;5096147;28;20285;-81
2021/07/12 01:23:27;;;;;;;6.57;5.23;;;17.50;99.90;;;;;;5096240;28;20207;-81
2021/07/12 01:26:29;;;;;;;9.63;5.70;;;17.40;99.90;;;;;;5096061;28;20191;-81
2021/07/12 01:29:11;;;;;;;5.77;4.83;;;17.50;99.90;;;;;;5095937;28;20289;-80
2021/07/12 01:32:04;;;;;;;7.40;5.70;;;17.40;99.90;;;;;;5095833;28;20317;-80
2021/07/12 01:34:39;;;;;;;8.90;4.97;;;17.40;99.90;;;;;;5095853;28;20195;-80
2021/07/12 01:37:13;;;;;;;6.47;4.90;;;17.40;99.90;;;;;;5096200;28;20637;-80
2021/07/12 01:39:46;;;;;;;8.10;4.93;;;17.50;99.90;;;;;;5095931;28;20209;-80
2021/07/12 01:42:19;;;;;;;6.53;5.30;;;17.40;99.90;;;;;;5096089;28;20282;-80
2021/07/12 01:44:57;;;;;;;7.13;5.00;;;17.50;99.90;;;;;;5095843;28;20652;-80
2021/07/12 01:47:34;;;;;;;5.40;4.90;;;17.50;99.90;;;;;;5096136;28;20199;-80
2021/07/12 01:50:06;;;;;;;5.53;4.93;;;17.60;99.90;;;;;;5096192;28;20209;-80
2021/07/12 01:52:41;;;;;;;5.17;4.63;;;17.50;99.90;;;;;;5095807;28;20234;-80
2021/07/12 01:55:17;;;;;;;8.07;4.90;;;17.50;99.90;;;;;;5095562;28;20202;-80
2021/07/12 01:57:50;;;;;;;5.90;4.93;;;17.50;99.90;;;;;;5095813;28;20202;-80
2021/07/12 02:00:19;;;;;;;7.63;5.33;;;17.50;99.90;;;;;;5095614;28;20294;-80
2021/07/12 02:02:49;;;;;;;6.80;5.10;;;17.50;99.90;;;;;;5095650;28;20198;-80
2021/07/12 02:05:20;;;;;;;6.07;4.97;;;17.50;99.90;;;;;;5095650;28;20230;-80
2021/07/12 02:07:50;;;;;;;6.70;4.97;;;17.40;99.90;;;;;;5095412;28;20217;-80
2021/07/12 02:10:20;;;;;;;6.80;5.20;;;17.40;99.90;;;;;;5095550;28;20289;-80
2021/07/12 02:12:50;;;;;;;5.30;4.80;;;17.30;99.90;;;;;;5095560;28;20195;-80
2021/07/12 02:15:18;;;;;;;6.00;5.20;;;17.30;99.90;;;;;;5095025;28;20519;-80
2021/07/12 02:17:47;;;;;;;7.70;4.87;;;17.40;99.90;;;;;;5095482;28;20203;-80
2021/07/12 02:20:16;;;;;;;8.13;5.00;;;17.50;99.90;;;;;;5095172;28;20636;-80
2021/07/12 02:22:47;;;;;;;9.03;5.13;;;17.50;99.90;;;;;;5095003;28;20221;-80
2021/07/12 02:25:16;;;;;;;10.87;5.23;;;17.50;99.90;;;;;;5095047;28;20285;-80
2021/07/12 02:27:45;;;;;;;9.70;5.07;;;17.40;99.90;;;;;;5094877;28;20206;-80
2021/07/12 02:30:13;;;;;;;7.50;5.30;;;17.40;99.90;;;;;;5094101;28;20290;-80
2021/07/12 02:32:46;;;;;;;8.07;5.00;;;17.50;99.90;;;;;;5094796;28;20226;-80
2021/07/12 02:35:14;;;;;;;6.07;4.93;;;17.60;99.90;;;;;;5094554;28;20633;-80
2021/07/12 02:37:42;;;;;;;9.57;5.27;;;17.60;99.90;;;;;;5094959;28;20285;-80
2021/07/12 02:40:14;;;;;;;8.27;5.63;;;17.60;99.90;;;;;;5095075;28;20278;-80
2021/07/12 02:42:46;;;;;;;9.50;5.77;;;17.70;99.90;;;;;;5094901;28;20269;-80
2021/07/12 02:45:14;;;;;;;9.50;5.77;;;17.70;99.90;;;;;;5094543;28;20197;-80
2021/07/12 02:47:41;;;;;;;9.57;6.10;;;17.60;99.90;;;;;;5094657;28;20222;-80
2021/07/12 02:50:10;;;;;;;6.90;5.70;;;17.60;99.90;;;;;;5094376;28;20203;-80
2021/07/12 02:52:42;;;;;;;6.17;5.57;;;17.70;99.90;;;;;;5094427;28;20322;-80
2021/07/12 02:55:12;;;;;;;10.00;6.23;;;17.60;99.90;;;;;;5093931;28;20193;-80
2021/07/12 02:57:40;;;;;;;8.83;6.40;;;17.50;99.90;;;;;;5094446;28;20244;-80
2021/07/12 03:00:10;;;;;;;7.83;6.17;;;17.30;99.90;;;;;;5094329;28;20205;-80
2021/07/12 03:02:37;;;;;;;9.70;6.27;;;17.20;99.90;;;;;;5094349;28;20238;-80
2021/07/12 03:05:09;;;;;;;7.40;6.43;;;17.20;99.90;;;;;;5094438;28;20226;-80
2021/07/12 03:07:42;;;;;;;7.00;6.03;;;17.30;99.90;;;;;;5094289;28;20277;-80
2021/07/12 03:10:14;;;;;;;10.20;6.50;;;17.30;99.90;;;;;;5094062;28;20285;-80
2021/07/12 03:12:45;;;;;;;10.57;6.57;;;17.30;99.90;;;;;;5093838;28;20707;-80
2021/07/12 03:15:14;;;;;;;8.57;5.90;;;17.40;99.90;;;;;;5094058;28;20273;-80
2021/07/12 03:17:48;;;;;;;9.80;6.77;;;17.40;99.90;;;;;;5093884;28;20293;-80
2021/07/12 03:20:16;;;;;;;8.77;6.17;;;17.40;99.90;;;;;;5094013;28;20226;-80
2021/07/12 03:22:53;;;;;;;8.77;6.30;;;17.40;99.90;;;;;;5094168;28;20222;-80
2021/07/12 03:25:24;;;;;;;7.27;6.57;;;17.40;99.90;;;;;;5093694;28;20647;-80
2021/07/12 03:27:55;;;;;;;8.33;6.57;;;17.20;99.90;;;;;;5093498;28;20770;-81
2021/07/12 03:30:23;;;;;;;9.50;6.90;;;17.00;99.90;;;;;;5094042;28;20205;-80
2021/07/12 03:32:51;;;;;;;9.53;6.90;;;16.90;99.90;;;;;;5093792;28;20302;-80
2021/07/12 03:35:20;;;;;;;10.80;6.63;;;16.80;99.90;;;;;;5093856;28;20249;-80
2021/07/12 03:37:47;;;;;;;14.07;7.53;;;16.70;99.90;;;;;;5093645;28;20281;-80
2021/07/12 03:40:15;;;;;;;7.80;7.00;;;16.60;99.90;;;;;;5093653;28;20203;-81
2021/07/12 03:42:43;;;;;;;10.93;6.90;;;16.60;99.90;;;;;;5092787;28;20231;-81
2021/07/12 03:45:13;;;;;;;12.60;7.50;;;16.60;99.90;;;;;;5093435;28;20289;-81
2021/07/12 03:47:40;;;;;;;9.50;7.80;;;16.50;99.90;;;;;;5093400;28;20199;-81
2021/07/12 03:50:11;;;;;;;16.57;7.70;;;16.60;99.90;;;;;;5093141;28;20233;-80
2021/07/12 03:52:43;;;;;;;12.47;7.87;;;16.40;99.90;;;;;;5093471;28;20269;-80
2021/07/12 03:55:12;;;;;;;8.40;7.00;;;16.30;99.90;;;;;;5092902;28;20202;-81
2021/07/12 03:57:39;;;;;;;14.37;7.67;;;16.20;99.90;;;;;;5093506;28;20229;-80
2021/07/12 04:00:10;;;;;;;11.03;7.50;;;16.10;99.90;;;;;;5093383;28;20237;-79
2021/07/12 04:02:37;;;;;;;11.83;7.67;;;16.10;99.90;;;;;;5093520;28;20312;-80
2021/07/12 04:05:05;;;;;;;10.23;7.43;;;16.20;99.90;;;;;;5093591;28;20202;-80
2021/07/12 04:07:32;;;;;;;10.00;7.70;;;16.30;99.90;;;;;;5093368;28;20205;-79
2021/07/12 04:09:59;;;;;;;12.47;7.93;;;16.30;99.90;;;;;;5093182;28;20286;-80
2021/07/12 04:12:28;;;;;;;7.60;6.80;;;16.40;99.90;;;;;;5093189;28;20224;-80
2021/07/12 04:14:57;;;;;;;10.13;7.50;;;16.50;99.90;;;;;;5092800;28;20716;-80
2021/07/12 04:17:25;;;;;;;13.00;7.70;;;16.60;99.90;;;;;;5092893;28;20228;-80
2021/07/12 04:19:52;;;;;;;9.33;7.03;;;16.60;99.90;;;;;;5093245;28;20730;-80
2021/07/12 04:22:19;;;;;;;11.37;7.30;;;16.50;99.90;;;;;;5093312;28;20226;-80
2021/07/12 04:24:46;;;;;;;9.33;6.80;;;16.70;99.90;;;;;;5093408;28;20601;-80
2021/07/12 04:27:13;;;;;;;7.73;6.63;;;16.80;99.90;;;;;;5092885;28;20293;-80
2021/07/12 04:29:40;;;;;;;10.00;7.77;;;16.90;99.90;;;;;;5092926;28;20195;-80
2021/07/12 04:32:08;;;;;;;8.20;6.60;;;17.00;99.90;;;;;;5093403;28;20317;-81
2021/07/12 04:34:36;;;;;;;7.23;6.53;;;16.90;99.90;;;;;;5092932;28;20671;-81
2021/07/12 04:37:04;;;;;;;8.17;6.60;;;16.80;99.90;;;;;;5093023;28;20289;-81
2021/07/12 04:39:31;;;;;;;9.30;6.50;;;16.70;99.90;;;;;;5092769;28;20289;-81
2021/07/12 04:41:59;;;;;;;7.37;6.47;;;16.80;99.90;;;;;;5092997;28;20202;-80
2021/07/12 04:44:26;;;;;;;9.13;6.03;;;17.00;99.90;;;;;;5092454;28;20202;-80
2021/07/12 04:46:54;;;;;;;8.50;6.60;;;17.20;99.90;;;;;;5092635;28;20205;-79
2021/07/12 04:49:21;;;;;;;8.00;6.70;;;17.40;99.90;;;;;;5092962;28;20199;-80
2021/07/12 04:51:50;;;;;;;7.83;6.40;;;17.60;99.90;;;;;;5092766;28;20305;-80
2021/07/12 04:54:17;;;;;;;8.70;6.10;;;17.90;99.90;;;;;;5095325;28;20560;-80
2021/07/12 04:56:44;;;;;;;7.80;6.33;;;18.30;99.90;;;;;;5076157;28;20294;-80
2021/07/12 04:59:11;;;;;;;7.33;6.07;;;18.50;99.90;;;;;;5076553;28;20223;-80
2021/07/12 05:01:40;;;;;;;7.70;6.27;;;18.40;99.90;;;;;;5076934;28;20198;-80
2021/07/12 05:04:08;;;;;;;7.37;6.60;;;18.20;99.90;;;;;;5076115;28;20203;-80
2021/07/12 05:06:35;;;;;;;10.77;6.50;;;18.10;99.90;;;;;;5076156;28;20195;-80
2021/07/12 05:09:04;;;;;;;8.67;6.17;;;18.50;99.90;;;;;;5075869;28;20246;-80
2021/07/12 05:11:31;;;;;;;8.40;6.00;;;18.90;99.90;;;;;;5076127;28;20533;-80
2021/07/12 05:14:00;;;;;;;10.20;6.17;;;19.30;99.90;;;;;;5076364;28;20286;-80
2021/07/12 05:16:27;;;;;;;7.97;6.07;;;19.40;99.90;;;;;;5081966;28;20194;-80
2021/07/12 05:19:00;;;;;;;9.13;6.40;;;19.50;99.90;;;;;;5090765;28;20195;-80
2021/07/12 05:21:28;;;;;;;7.60;6.37;;;19.70;99.90;;;;;;5079050;28;20691;-80
2021/07/12 05:23:56;;;;;;;6.73;5.83;;;19.70;99.90;;;;;;5095278;28;20305;-79
2021/07/12 05:26:24;;;;;;;11.80;5.77;;;19.90;99.90;;;;;;5092152;28;20699;-80
2021/07/12 05:28:52;;;;;;;7.17;6.03;;;20.20;99.90;;;;;;5076036;28;20286;-80
2021/07/12 05:31:19;;;;;;;6.57;5.70;;;20.40;99.90;;;;;;5089341;28;20263;-80
2021/07/12 05:33:46;;;;;;;11.77;6.27;;;20.80;99.90;;;;;;5084039;28;20203;-80
2021/07/12 05:36:13;;;;;;;7.37;6.17;;;21.20;99.90;;;;;;5078018;28;20286;-79
2021/07/12 05:38:40;;;;;;;7.93;5.80;;;21.50;99.90;;;;;;5094987;28;20289;-79
2021/07/12 05:41:13;;;;;;;7.13;6.05;;;21.70;99.90;;;;;;5095334;28;20223;-80
2021/07/12 05:43:41;;;;;;;10.40;5.72;;;21.70;99.90;;;;;;5095166;28;20278;-80
2021/07/12 05:46:08;;;;;;;8.98;5.78;;;21.30;99.90;;;;;;5095409;28;20656;-81
2021/07/12 05:48:35;;;;;;;8.03;5.60;;;21.20;99.90;;;;;;5100737;28;20288;-80
2021/07/12 05:51:02;;;;;;;8.43;6.00;;;21.00;99.90;;;;;;5100830;28;20191;-81
2021/07/12 05:53:29;;;;;;;7.17;5.30;;;20.90;99.90;;;;;;5086314;28;20250;-80
2021/07/12 05:55:56;;;;;;;7.47;4.63;;;21.00;99.90;;;;;;5084958;28;20184;-80
2021/07/12 05:58:26;;;;;;;9.77;5.03;;;21.80;99.90;;;;;;5075262;28;20222;-81
2021/07/12 06:00:55;;;;;;;5.72;4.45;;;22.60;99.90;;;;;;5093119;28;20230;-81
2021/07/12 06:03:22;;;;;;;6.97;4.50;;;23.40;99.90;;;;;;5100791;28;20221;-80
2021/07/12 06:05:49;;;;;;;9.35;4.63;;;24.10;99.90;;;;;;5092415;28;20222;-80
2021/07/12 06:08:16;;;;;;;8.38;4.15;;;24.70;99.90;;;;;;5088129;28;20222;-80
2021/07/12 06:10:43;;;;;;;4.45;4.00;;;24.70;99.90;;;;;;5094825;28;20268;-80
2021/07/12 06:13:10;;;;;;;9.73;4.10;;;24.20;99.90;;;;;;5102823;28;20320;-79
2021/07/12 06:15:37;;;;;;;9.20;3.50;;;23.90;99.90;;;;;;5102934;28;20647;-80
2021/07/12 06:18:12;;;;;;;7.05;3.63;;;23.60;99.90;;;;;;5099497;28;20711;-82
2021/07/12 06:20:39;;;;;;;7.03;3.28;;;23.80;99.90;;;;;;5090333;28;20229;-80
2021/07/12 06:23:06;;;;;;;6.72;3.60;;;24.50;99.90;;;;;;5092909;28;20234;-79
2021/07/12 06:25:32;;;;;;;6.72;3.30;;;25.80;99.90;;;;;;5092854;28;20532;-80
2021/07/12 06:27:59;;;;;;;5.43;2.83;;;27.10;99.90;;;;;;5093168;28;20203;-80
2021/07/12 06:30:26;;;;;;;5.28;2.97;;;27.90;99.90;;;;;;5093288;28;20205;-80
2021/07/12 06:32:53;;;;;;;7.85;2.83;;;28.50;99.90;;;;;;5093223;28;20324;-80
2021/07/12 06:35:21;;;;;;;5.95;2.80;;;28.90;99.90;;;;;;5093922;28;20195;-80
2021/07/12 06:37:48;;;;;;;3.33;2.50;;;29.50;99.90;;;;;;5094676;28;20602;-80
2021/07/12 06:40:16;;;;;;;6.90;2.47;;;29.70;99.90;;;;;;5091884;28;20213;-80
2021/07/12 06:42:46;;;;;;;3.97;2.33;;;29.60;99.90;;;;;;5074685;28;20547;-80
2021/07/12 06:45:14;;;;;;;9.60;2.60;;;30.70;99.90;;;;;;5089457;28;20285;-80
2021/07/12 06:47:42;;;;;;;4.38;2.65;;;30.20;99.90;;;;;;5114338;28;20224;-80
2021/07/12 06:50:09;;;;;;;9.23;2.80;;;30.60;99.90;;;;;;5113947;28;20658;-80
2021/07/12 06:52:38;;;;;;;7.45;2.50;;;31.60;99.90;;;;;;5114071;28;20580;-80
2021/07/12 06:55:05;;;;;;;4.63;2.58;;;32.00;99.90;;;;;;5113929;28;20270;-79
2021/07/12 06:57:32;;;;;;;2.83;2.10;;;32.20;99.90;;;;;;5092183;28;20720;-80
2021/07/12 06:59:59;;;;;;;5.82;2.38;;;32.00;99.90;;;;;;5073193;28;20807;-80
2021/07/12 07:02:26;;;;;;;6.00;2.47;;;31.30;99.90;;;;;;5073253;28;20234;-80
2021/07/12 07:04:53;;;;;;;11.52;2.40;;;30.10;99.90;;;;;;5073613;28;20196;-79
2021/07/12 07:07:20;;;;;;;3.17;2.35;;;29.90;99.90;;;;;;5073018;28;20630;-79
2021/07/12 07:09:48;;;;;;;3.38;2.30;;;29.50;99.90;;;;;;5087951;28;20203;-80
2021/07/12 07:12:15;;;;;;;4.93;2.38;;;29.30;99.90;;;;;;5093149;28;20282;-80
2021/07/12 07:14:42;;;;;;;4.13;2.22;;;29.30;99.90;;;;;;5093677;28;20230;-80
2021/07/12 07:17:09;;;;;;;10.65;2.35;;;28.90;99.90;;;;;;5093201;28;20213;-80
2021/07/12 07:19:36;;;;;;;5.18;2.42;;;29.00;99.90;;;;;;5093350;28;20285;-80
2021/07/12 07:22:03;;;;;;;3.50;2.10;;;29.20;99.90;;;;;;5093007;28;20726;-79
2021/07/12 07:24:29;;;;;;;4.63;1.90;;;29.70;99.90;;;;;;5093137;28;20203;-79
2021/07/12 07:26:58;;;;;;;10.23;2.20;;;29.90;99.90;;;;;;5092400;28;20317;-80
2021/07/12 07:29:25;;;;;;;3.17;1.73;;;30.70;99.90;;;;;;5093015;28;20221;-80
2021/07/12 07:31:52;;;;;;;3.08;1.63;;;31.30;99.90;;;;;;5093241;28;20195;-80
2021/07/12 07:34:18;;;;;;;3.78;2.05;;;31.80;99.90;;;;;;5092642;28;20782;-80
2021/07/12 07:36:45;;;;;;;4.97;1.73;;;33.00;99.90;;;;;;5092717;28;20206;-80
2021/07/12 07:39:12;;;;;;;3.05;2.03;;;33.40;99.90;;;;;;5092515;28;20221;-80
2021/07/12 07:41:40;;;;;;;9.45;2.28;;;33.60;99.90;;;;;;5073694;28;20674;-79
2021/07/12 07:44:08;;;;;;;4.45;1.90;;;33.10;99.90;;;;;;5084416;28;20219;-80
2021/07/12 07:46:36;;;;;;;7.90;2.00;;;32.40;99.90;;;;;;5072660;28;20199;-80
2021/07/12 07:49:07;;;;;;;9.23;2.10;;;32.50;99.90;;;;;;5072947;28;20199;-80
2021/07/12 07:51:34;;;;;;;3.00;2.08;;;32.70;99.90;;;;;;5092326;28;20268;-80
2021/07/12 07:54:01;;;;;;;5.15;1.85;;;32.70;99.90;;;;;;5082802;28;20257;-80
2021/07/12 07:56:27;;;;;;;2.58;2.00;;;32.90;99.90;;;;;;5092820;28;20234;-80
2021/07/12 07:58:54;;;;;;;6.07;1.90;;;32.30;99.90;;;;;;5092530;28;20280;-80
2021/07/12 08:01:22;;;;;;;4.53;2.10;;;31.90;99.90;;;;;;5092357;28;20199;-80
2021/07/12 08:03:49;;;;;;;4.03;2.13;;;31.50;99.90;;;;;;5088658;28;20720;-80
2021/07/12 08:06:18;;;;;;;10.40;2.67;;;31.20;99.90;;;;;;5089339;28;20195;-81
2021/07/12 08:08:45;;;;;;;5.45;2.00;;;31.10;99.90;;;;;;5104525;28;20195;-80
2021/07/12 08:11:12;;;;;;;3.15;1.95;;;30.80;99.90;;;;;;5092307;28;20209;-80
2021/07/12 08:13:44;;;;;;;5.28;2.35;;;30.10;99.90;;;;;;5081688;28;20215;-81
2021/07/12 08:16:11;;;;;;;5.03;1.83;;;29.80;99.90;;;;;;5072392;28;20294;-80
2021/07/12 08:18:39;;;;;;;4.53;2.17;;;29.90;99.90;;;;;;5081456;28;20205;-80
2021/07/12 08:21:11;;;;;;;4.40;2.13;;;30.20;99.90;;;;;;5092053;28;20198;-81
2021/07/12 08:23:39;;;;;;;2.58;1.77;;;29.70;99.90;;;;;;5091806;28;20194;-79
2021/07/12 08:26:06;;;;;;;3.03;1.80;;;29.30;99.90;;;;;;5092361;28;20191;-81
2021/07/12 08:28:33;;;;;;;7.78;2.25;;;29.30;99.90;;;;;;5094788;28;20289;-80
2021/07/12 08:31:00;;;;;;;2.70;1.90;;;29.30;99.90;;;;;;5088109;28;20209;-81
2021/07/12 08:33:27;;;;;;;5.18;2.10;;;29.00;99.90;;;;;;5083512;28;20278;-80
2021/07/12 08:35:56;;;;;;;3.90;2.20;;;28.40;99.90;;;;;;5085490;28;20195;-80
2021/07/12 08:38:23;;;;;;;3.00;2.00;;;28.40;99.90;;;;;;5076415;28;20286;-80
2021/07/12 08:40:52;;;;;;;6.53;2.05;;;28.20;99.90;;;;;;5076010;28;20745;-80
2021/07/12 08:43:19;;;;;;;2.83;1.90;;;28.20;99.90;;;;;;5083037;28;20243;-80
2021/07/12 08:45:47;;;;;;;2.45;2.08;;;28.30;99.90;;;;;;5103200;28;20291;-80
2021/07/12 08:48:15;;;;;;;4.85;2.10;;;28.00;99.90;;;;;;5095291;28;20195;-81
2021/07/12 08:50:42;;;;;;;3.25;2.10;;;27.90;99.90;;;;;;5096166;28;20191;-80
2021/07/12 08:53:13;;;;;;;4.50;2.03;;;27.80;99.90;;;;;;5095966;28;20240;-80
2021/07/12 08:55:40;;;;;;;7.53;2.38;;;27.80;99.90;;;;;;5096259;28;20198;-81
2021/07/12 08:58:10;;;;;;;3.00;2.05;;;27.60;99.90;;;;;;5095858;28;20294;-81
2021/07/12 09:00:45;;;;;;;2.83;2.17;;;27.80;99.90;;;;;;5090314;28;20289;-80
2021/07/12 09:03:27;;;;;;;7.35;2.25;;;27.70;99.90;;;;;;5087822;28;20202;-80
2021/07/12 09:06:04;;;;;;;3.65;2.00;;;27.50;99.90;;;;;;5083487;28;20215;-81
2021/07/12 09:08:45;;;;;;;2.55;1.80;;;26.80;99.90;;;;;;5094939;28;20548;-80
2021/07/12 09:11:15;;;;;;;5.03;2.17;;;26.60;99.90;;;;;;5075116;28;20276;-80
2021/07/12 09:13:45;;;;;;;6.30;2.58;;;26.60;99.90;;;;;;5075806;28;20269;-80
2021/07/12 09:16:51;;;;;;;3.35;2.13;;;27.10;99.90;;;;;;5096527;28;20273;-81
2021/07/12 09:19:27;;;;;;;2.67;1.90;;;27.60;99.90;;;;;;5094291;28;20687;-80
2021/07/12 09:21:58;;;;;;;4.28;2.10;;;27.50;99.90;;;;;;5090636;28;20196;-80
2021/07/12 09:24:38;;;;;;;4.47;2.55;;;28.00;99.90;;;;;;5078524;28;20209;-81
2021/07/12 09:27:12;;;;;;;4.57;2.10;;;28.70;99.90;;;;;;5090077;28;20289;-80
2021/07/12 09:29:40;;;;;;;2.38;1.90;;;28.90;99.90;;;;;;5099514;28;20328;-79
2021/07/12 09:32:09;;;;;;;3.92;2.30;;;29.00;99.90;;;;;;5115889;28;20208;-80
2021/07/12 09:34:36;;;;;;;5.03;2.10;;;28.90;99.90;;;;;;5100865;28;20250;-80
2021/07/12 09:37:04;;;;;;;4.50;2.40;;;28.90;99.90;;;;;;5095134;28;20229;-80
2021/07/12 09:39:34;;;;;;;2.80;1.88;;;29.30;99.90;;;;;;5093844;28;20278;-80
2021/07/12 09:42:06;;;;;;;5.22;1.92;;;29.70;99.90;;;;;;5087390;28;20219;-80
2021/07/12 09:44:34;;;;;;;6.65;2.30;;;29.90;99.90;;;;;;5091053;28;20195;-80
2021/07/12 09:47:12;;;;;;;3.65;2.30;;;29.70;99.90;;;;;;5090514;28;20194;-80
2021/07/12 09:49:39;;;;;;;2.25;2.08;;;29.10;99.90;;;;;;5095472;28;20226;-80
2021/07/12 09:52:09;;;;;;;2.80;2.13;;;29.00;99.90;;;;;;5093714;28;20223;-81
2021/07/12 09:54:41;;;;;;;3.38;1.98;;;28.90;99.90;;;;;;5093095;28;20516;-80
2021/07/12 09:57:12;;;;;;;3.00;2.40;;;28.30;99.90;;;;;;5091530;28;20252;-80
2021/07/12 09:59:53;;;;;;;2.63;2.38;;;28.20;99.90;;;;;;5092140;28;20209;-80
2021/07/12 10:02:22;;;;;;;3.80;2.50;;;27.60;99.90;;;;;;5092655;28;20198;-79
2021/07/12 10:04:52;;;;;;;5.57;2.58;;;27.60;99.90;;;;;;5093286;28;20281;-79
2021/07/12 10:07:20;;;;;;;2.75;2.55;;;27.30;99.90;;;;;;5094364;28;20199;-80
2021/07/12 10:09:47;;;;;;;3.28;2.38;;;26.60;99.90;;;;;;5092669;28;20277;-80
2021/07/12 10:12:16;;;;;;;3.05;2.38;;;26.40;99.90;;;;;;5094933;28;20282;-80
2021/07/12 10:14:43;;;;;;;2.95;2.40;;;26.10;99.90;;;;;;5094462;28;20306;-79
2021/07/12 10:17:11;;;;;;;3.47;2.33;;;25.80;99.90;;;;;;5094334;28;20190;-79
2021/07/12 10:19:40;;;;;;;3.30;2.60;;;25.60;99.90;;;;;;5093262;28;20205;-79
2021/07/12 10:22:07;;;;;;;4.82;2.50;;;25.50;99.90;;;;;;5093908;28;20195;-79
2021/07/12 10:24:39;;;;;;;3.85;2.28;;;25.60;99.90;;;;;;5092752;28;20199;-79
2021/07/12 10:27:18;;;;;;;2.92;2.50;;;26.10;99.90;;;;;;5091628;28;20290;-79
2021/07/12 10:29:47;;;;;;;3.53;2.30;;;26.70;99.90;;;;;;5094350;28;20222;-79
2021/07/12 10:32:15;;;;;;;4.22;2.30;;;27.00;99.90;;;;;;5096670;28;20241;-79
2021/07/12 10:34:45;;;;;;;2.80;2.47;;;27.40;99.90;;;;;;5097173;28;20301;-79
2021/07/12 10:37:27;;;;;;;2.80;2.45;;;28.10;99.90;;;;;;5092748;28;20187;-79
2021/07/12 10:40:11;;;;;;;3.40;2.33;;;28.80;99.90;;;;;;5092392;28;20209;-79
2021/07/12 10:43:02;;;;;;;3.08;2.00;;;28.70;99.90;;;;;;5093585;28;20333;-80
2021/07/12 10:45:51;;;;;;;2.60;1.90;;;28.30;99.90;;;;;;5088293;28;20226;-79
2021/07/12 10:48:19;;;;;;;2.10;1.88;;;28.00;99.90;;;;;;5099427;28;20199;-79
2021/07/12 10:50:57;;;;;;;3.45;1.73;;;27.70;99.90;;;;;;5108836;28;20198;-78
2021/07/12 10:53:58;;;;;;;1.77;1.67;;;27.10;99.90;;;;;;5076400;28;20336;-79
2021/07/12 10:56:43;;;;;;;3.92;1.60;;;26.80;99.90;;;;;;5089253;28;20564;-79
2021/07/12 10:59:23;;;;;;;3.83;1.98;;;27.10;99.90;;;;;;5090812;28;20199;-79
2021/07/12 11:01:51;;;;;;;1.70;1.60;;;27.40;99.90;;;;;;5099148;28;20634;-79
2021/07/12 11:04:38;;;;;;;3.03;1.90;;;27.30;99.90;;;;;;5100796;28;20194;-79
2021/07/12 11:07:10;;;;;;;5.22;1.73;;;27.20;99.90;;;;;;5090301;28;20238;-79
2021/07/12 11:09:49;;;;;;;3.25;1.58;;;27.30;99.90;;;;;;5093497;28;20272;-79
2021/07/12 11:12:32;;;;;;;1.73;1.35;;;27.80;99.90;;;;;;5092489;28;20293;-80
2021/07/12 11:15:28;;;;;;;3.50;1.70;;;28.20;99.90;;;;;;5093368;28;20770;-79
2021/07/12 11:18:00;;;;;;;2.15;1.70;;;28.20;99.90;;;;;;5056398;28;20541;-79
2021/07/12 11:20:54;;;;;;;2.63;1.92;;;27.90;99.90;;;;;;5092868;28;20210;-80
2021/07/12 11:23:55;;;;;;;2.10;2.00;;;27.60;99.90;;;;;;5091693;28;20274;-79
2021/07/12 11:26:45;;;;;;;3.00;1.88;;;26.60;99.90;;;;;;5093272;28;20205;-79
2021/07/12 11:29:16;;;;;;;6.38;2.22;;;26.60;99.90;;;;;;5092727;28;20298;-79
2021/07/12 11:31:44;;;;;;;2.72;2.28;;;26.60;99.90;;;;;;5092787;28;20667;-79
2021/07/12 11:34:20;;;;;;;4.03;1.80;;;26.60;99.90;;;;;;5090010;28;20579;-79
2021/07/12 11:36:59;;;;;;;2.20;2.00;;;26.60;99.90;;;;;;5089996;28;20631;-78
2021/07/12 11:39:27;;;;;;;2.72;2.00;;;26.40;99.90;;;;;;5093126;28;20220;-79
2021/07/12 11:41:55;;;;;;;3.45;1.73;;;25.80;99.90;;;;;;5089257;28;20204;-78
2021/07/12 11:44:22;;;;;;;2.08;1.63;;;25.50;99.90;;;;;;5092153;28;20935;-79
2021/07/12 11:46:50;;;;;;;3.25;1.90;;;25.70;99.90;;;;;;5093524;28;20289;-79
2021/07/12 11:49:20;;;;;;;2.40;2.10;;;25.70;99.90;;;;;;5090577;28;20659;-79
2021/07/12 11:51:53;;;;;;;2.65;1.90;;;26.10;99.90;;;;;;5092149;28;20282;-81
2021/07/12 11:54:22;;;;;;;5.05;1.90;;;26.50;99.90;;;;;;5092352;28;20222;-78
2021/07/12 11:57:00;;;;;;;4.72;2.28;;;26.60;99.90;;;;;;5113766;28;20198;-79
2021/07/12 11:59:29;;;;;;;4.20;1.98;;;26.70;99.90;;;;;;5113621;28;20723;-79
2021/07/12 12:02:04;;;;;;;5.15;1.90;;;27.00;99.90;;;;;;5103608;28;20633;-79
2021/07/12 12:04:47;;;;;;;4.57;2.10;;;27.50;99.90;;;;;;5091287;28;20187;-78
2021/07/12 12:07:31;;;;;;;3.25;2.15;;;27.90;99.90;;;;;;5085445;28;20290;-79
2021/07/12 12:09:59;;;;;;;2.85;2.05;;;28.10;99.90;;;;;;5072982;28;20274;-79
2021/07/12 12:12:29;;;;;;;3.05;2.08;;;28.60;99.90;;;;;;5072829;28;20202;-79
2021/07/12 12:15:00;;;;;;;2.95;2.00;;;29.20;99.90;;;;;;5073141;28;20255;-79
2021/07/12 12:17:28;;;;;;;5.45;2.08;;;29.80;99.90;;;;;;5072671;28;20196;-79
2021/07/12 12:20:06;;;;;;;2.63;2.13;;;29.90;99.90;;;;;;5072814;28;20728;-79
2021/07/12 12:22:33;;;;;;;2.72;1.52;;;29.90;99.90;;;;;;5071756;28;20205;-79
2021/07/12 12:25:01;;;;;;;3.80;2.00;;;30.00;99.90;;;;;;5072874;28;20246;-79
2021/07/12 12:27:28;;;;;;;2.08;1.70;;;30.10;99.90;;;;;;5072879;28;20294;-78
2021/07/12 12:29:55;;;;;;;2.33;2.13;;;29.90;99.90;;;;;;5085159;28;20198;-79
2021/07/12 12:32:31;;;;;;;2.35;2.00;;;29.80;99.90;;;;;;5093148;28;20222;-79
2021/07/12 12:35:01;;;;;;;4.07;2.42;;;29.80;99.90;;;;;;5092941;28;20233;-79
2021/07/12 12:37:37;;;;;;;4.20;2.15;;;29.90;99.90;;;;;;5083664;28;20195;-78
2021/07/12 12:40:17;;;;;;;4.60;1.83;;;30.20;99.90;;;;;;5089025;28;20190;-78
2021/07/12 12:42:45;;;;;;;5.85;1.85;;;30.60;99.90;;;;;;5092948;28;20256;-78
2021/07/12 12:45:12;;;;;;;2.15;1.92;;;31.00;99.90;;;;;;5089185;28;20766;-79
2021/07/12 12:47:45;;;;;;;3.22;1.95;;;31.00;99.90;;;;;;5091080;28;20703;-78
2021/07/12 12:50:14;;;;;;;2.95;2.00;;;30.80;99.90;;;;;;5089319;28;20203;-79
2021/07/12 12:52:42;;;;;;;3.28;2.10;;;30.80;99.90;;;;;;5089102;28;20203;-79
2021/07/12 12:55:11;;;;;;;4.07;2.40;;;30.50;99.90;;;;;;5092205;28;20301;-78
2021/07/12 12:57:38;;;;;;;3.15;1.95;;;31.00;99.90;;;;;;5094167;28;20429;-78
2021/07/12 13:00:08;;;;;;;3.70;1.92;;;31.20;99.90;;;;;;5091787;28;20298;-78
2021/07/12 13:02:40;;;;;;;3.58;1.80;;;31.20;99.90;;;;;;5090077;28;20675;-78